createdAt,value
2023-07-12T00:02:02.999Z,98050.16
2023-07-12T00:05:05.312Z,98045.36
2023-07-12T00:08:16.233Z,98043.92
2023-07-12T00:11:21.074Z,98042.62
2023-07-12T00:14:22.656Z,98040.33
2023-07-12T00:17:24.273Z,98041.35
2023-07-12T00:20:33.546Z,98040.77
2023-07-12T00:23:35.133Z,98037.93
2023-07-12T00:26:37.883Z,98038.96
2023-07-12T00:29:39.612Z,98029.77
2023-07-12T00:32:41.609Z,98020.18
2023-07-12T00:35:43.361Z,98013.54
2023-07-12T00:38:45.075Z,98010.94
2023-07-12T00:42:09.610Z,98017.63
2023-07-12T00:45:13.232Z,98009.87
2023-07-12T00:48:15.732Z,98017.35
2023-07-12T00:51:30.886Z,98017.34
2023-07-12T00:54:54.118Z,98021.38
2023-07-12T00:57:55.849Z,98014.81
2023-07-12T01:00:59.618Z,98007.08
2023-07-12T01:04:03.640Z,98003.30
2023-07-12T01:07:05.429Z,98011.45
2023-07-12T01:10:08.794Z,98005.52
2023-07-12T01:13:11.603Z,97995.16
2023-07-12T01:16:17.893Z,97991.60
2023-07-12T01:19:20.328Z,97986.44
2023-07-12T01:22:22.015Z,97984.83
2023-07-12T01:25:33.740Z,97982.22
2023-07-12T01:28:35.352Z,97975.15
2023-07-12T01:31:40.444Z,97972.60
2023-07-12T01:34:42.161Z,97965.94
2023-07-12T01:37:43.868Z,97961.01
2023-07-12T01:40:45.443Z,97957.42
2023-07-12T01:43:47.280Z,97956.78
2023-07-12T01:46:49.070Z,97947.41
2023-07-12T01:49:50.693Z,97948.40
2023-07-12T01:52:52.313Z,97949.48
2023-07-12T01:55:55.983Z,97944.89
2023-07-12T01:58:57.669Z,97943.36
2023-07-12T02:01:59.402Z,97939.58
2023-07-12T02:05:01.213Z,97931.33
2023-07-12T02:08:03.006Z,97918.55
2023-07-12T02:11:04.775Z,97911.70
2023-07-12T02:14:06.470Z,97906.59
2023-07-12T02:17:09.316Z,97908.65
2023-07-12T02:20:12.515Z,97906.73
2023-07-12T02:23:14.433Z,97908.97
2023-07-12T02:26:16.069Z,97905.75
2023-07-12T02:29:17.888Z,97906.12
2023-07-12T02:32:21.434Z,97910.02
2023-07-12T02:35:28.317Z,97908.23
2023-07-12T02:38:29.897Z,97900.72
2023-07-12T02:41:31.578Z,97894.90
2023-07-12T02:44:33.134Z,97887.98
2023-07-12T02:47:35.371Z,97877.88
2023-07-12T02:50:37.115Z,97872.98
2023-07-12T02:53:40.430Z,97867.02
2023-07-12T02:56:43.086Z,97864.70
2023-07-12T02:59:44.737Z,97868.27
2023-07-12T03:02:46.336Z,97865.95
2023-07-12T03:05:47.983Z,97869.42
2023-07-12T03:08:49.741Z,97875.99
2023-07-12T03:11:51.389Z,97871.80
2023-07-12T03:14:53.284Z,97865.79
2023-07-12T03:17:54.948Z,97863.22
2023-07-12T03:21:01.518Z,97863.27
2023-07-12T03:24:03.481Z,97860.45
2023-07-12T03:27:05.644Z,97865.05
2023-07-12T03:30:07.906Z,97862.33
2023-07-12T03:33:09.534Z,97861.60
2023-07-12T03:36:11.343Z,97863.31
2023-07-12T03:39:13.271Z,97866.38
2023-07-12T03:42:14.920Z,97872.74
2023-07-12T03:45:16.620Z,97873.05
2023-07-12T03:48:18.562Z,97877.12
2023-07-12T03:51:23.225Z,97878.23
2023-07-12T03:54:24.925Z,97877.14
2023-07-12T03:57:26.698Z,97871.77
2023-07-12T04:00:28.442Z,97861.95
2023-07-12T04:03:30.815Z,97855.38
2023-07-12T04:06:33.175Z,97850.79
2023-07-12T04:09:34.873Z,97839.45
2023-07-12T04:12:36.681Z,97835.88
2023-07-12T04:15:38.554Z,97829.20
2023-07-12T04:18:40.267Z,97832.98
2023-07-12T04:21:41.938Z,97836.45
2023-07-12T04:24:48.288Z,97836.31
2023-07-12T04:27:49.932Z,97837.63
2023-07-12T04:30:51.696Z,97830.16
2023-07-12T04:33:53.440Z,97829.98
2023-07-12T04:36:55.045Z,97833.61
2023-07-12T04:39:57.285Z,97833.01
2023-07-12T04:42:58.974Z,97828.44
2023-07-12T04:46:01.052Z,97826.70
2023-07-12T04:49:02.595Z,97817.96
2023-07-12T04:52:05.149Z,97816.38
2023-07-12T04:55:21.821Z,97813.20
2023-07-12T04:58:24.033Z,97806.69
2023-07-12T05:01:25.808Z,97807.90
2023-07-12T05:04:27.905Z,97792.83
2023-07-12T05:07:31.814Z,97791.92
2023-07-12T05:10:33.776Z,97791.37
2023-07-12T05:13:35.417Z,97797.88
2023-07-12T05:16:37.671Z,97795.20
2023-07-12T05:19:39.327Z,97795.08
2023-07-12T05:22:42.355Z,97792.10
2023-07-12T05:25:54.600Z,97800.17
2023-07-12T05:28:57.026Z,97799.77
2023-07-12T05:31:58.712Z,97789.87
2023-07-12T05:35:00.710Z,97798.79
2023-07-12T05:38:03.152Z,97798.60
2023-07-12T05:41:05.029Z,97798.78
2023-07-12T05:44:06.710Z,97801.42
2023-07-12T05:47:08.406Z,97817.16
2023-07-12T05:50:12.736Z,97817.80
2023-07-12T05:53:14.380Z,97840.31
2023-07-12T05:56:16.005Z,97840.33
2023-07-12T05:59:19.373Z,97838.20
2023-07-12T06:02:21.221Z,97838.58
2023-07-12T06:05:22.915Z,97835.07
2023-07-12T06:08:25.960Z,97826.08
2023-07-12T06:11:27.587Z,97817.34
2023-07-12T06:14:29.327Z,97826.39
2023-07-12T06:17:32.119Z,97819.74
2023-07-12T06:20:33.888Z,97814.97
2023-07-12T06:23:36.429Z,97804.38
2023-07-12T06:26:38.082Z,97797.09
2023-07-12T06:29:46.218Z,97795.91
2023-07-12T06:32:47.900Z,97794.98
2023-07-12T06:35:49.654Z,97788.64
2023-07-12T06:38:51.352Z,97782.42
2023-07-12T06:41:53.014Z,97773.98
2023-07-12T06:44:54.735Z,97770.38
2023-07-12T06:47:56.547Z,97770.88
2023-07-12T06:50:58.730Z,97771.70
2023-07-12T06:54:00.753Z,97762.83
2023-07-12T06:57:02.654Z,97756.95
2023-07-12T07:00:10.084Z,97750.03
2023-07-12T07:03:14.432Z,97747.83
2023-07-12T07:06:18.059Z,97741.50
2023-07-12T07:09:20.075Z,97731.60
2023-07-12T07:12:22.195Z,97724.77
2023-07-12T07:15:23.985Z,97726.83
2023-07-12T07:18:26.351Z,97733.17
2023-07-12T07:21:28.012Z,97729.67
2023-07-12T07:24:29.913Z,97722.63
2023-07-12T07:27:31.788Z,97716.38
2023-07-12T07:30:33.454Z,97712.76
2023-07-12T07:33:38.209Z,97712.89
2023-07-12T07:36:40.085Z,97712.73
2023-07-12T07:39:42.189Z,97716.27
2023-07-12T07:42:49.052Z,97711.15
2023-07-12T07:45:53.677Z,97703.63
2023-07-12T07:48:55.544Z,97703.56
2023-07-12T07:51:57.395Z,97705.58
2023-07-12T07:54:59.947Z,97705.42
2023-07-12T07:58:02.189Z,97710.64
2023-07-12T08:01:03.798Z,97714.11
2023-07-12T08:04:09.774Z,97713.05
2023-07-12T08:07:12.725Z,97700.01
2023-07-12T08:10:17.982Z,97695.02
2023-07-12T08:13:20.069Z,97695.42
2023-07-12T08:16:21.831Z,97702.66
2023-07-12T08:19:23.629Z,97699.65
2023-07-12T08:22:25.790Z,97699.16
2023-07-12T08:25:27.581Z,97699.42
2023-07-12T08:28:29.313Z,97704.32
2023-07-12T08:31:31.356Z,97705.30
2023-07-12T08:34:33.223Z,97705.98
2023-07-12T08:37:34.983Z,97707.39
2023-07-12T08:40:41.906Z,97710.94
2023-07-12T08:43:44.702Z,97713.40
2023-07-12T08:46:56.409Z,97715.75
2023-07-12T08:49:58.717Z,97723.43
2023-07-12T08:53:00.824Z,97729.67
2023-07-12T08:56:05.040Z,97739.37
2023-07-12T08:59:14.043Z,97739.09
2023-07-12T09:02:22.713Z,97750.90
2023-07-12T09:05:25.377Z,97761.11
2023-07-12T09:08:36.411Z,97770.58
2023-07-12T09:11:39.872Z,97764.77
2023-07-12T09:14:41.629Z,97766.25
2023-07-12T09:17:45.482Z,97772.20
2023-07-12T09:20:51.264Z,97775.59
2023-07-12T09:23:59.606Z,97779.11
2023-07-12T09:27:06.674Z,97776.33
2023-07-12T09:30:08.803Z,97781.25
2023-07-12T09:33:19.304Z,97780.25
2023-07-12T09:36:28.253Z,97774.23
2023-07-12T09:39:30.124Z,97771.36
2023-07-12T09:42:31.955Z,97764.27
2023-07-12T09:45:36.163Z,97753.02
2023-07-12T09:48:52.843Z,97755.49
2023-07-12T09:52:06.372Z,97760.11
2023-07-12T09:55:24.317Z,97763.85
2023-07-12T09:58:36.280Z,97757.42
2023-07-12T10:01:49.448Z,97752.75
2023-07-12T10:04:55.957Z,97750.70
2023-07-12T10:08:15.594Z,97747.54
2023-07-12T10:11:27.641Z,97746.90
2023-07-12T10:14:37.422Z,97746.21
2023-07-12T10:17:42.904Z,97745.61
2023-07-12T10:20:46.617Z,97743.92
2023-07-12T10:23:58.798Z,97745.41
2023-07-12T10:27:05.091Z,97746.42
2023-07-12T10:30:15.478Z,97746.09
2023-07-12T10:33:28.091Z,97751.63
2023-07-12T10:36:30.912Z,97754.41
2023-07-12T10:39:33.112Z,97752.13
2023-07-12T10:42:47.357Z,97742.26
2023-07-12T10:45:51.972Z,97739.52
2023-07-12T10:48:55.641Z,97733.38
2023-07-12T10:52:11.833Z,97732.98
2023-07-12T10:55:19.653Z,97742.04
2023-07-12T10:58:22.776Z,97746.77
2023-07-12T11:01:46.560Z,97753.80
2023-07-12T11:04:49.824Z,97754.00
2023-07-12T11:07:54.674Z,97761.91
2023-07-12T11:10:59.943Z,97767.00
2023-07-12T11:14:25.338Z,97762.91
2023-07-12T11:17:29.605Z,97755.71
2023-07-12T11:21:02.496Z,97752.29
2023-07-12T11:24:26.550Z,97751.31
2023-07-12T11:27:38.683Z,97761.50
2023-07-12T11:30:44.349Z,97767.55
2023-07-12T11:34:15.471Z,97772.86
2023-07-12T11:37:25.804Z,97764.05
2023-07-12T11:40:36.315Z,97764.41
2023-07-12T11:43:38.544Z,97768.41
2023-07-12T11:46:42.402Z,97770.41
2023-07-12T11:49:45.712Z,97769.44
2023-07-12T11:52:48.872Z,97766.73
2023-07-12T11:55:50.937Z,97755.41
2023-07-12T11:58:52.922Z,97750.17
2023-07-12T12:01:54.704Z,97746.54
2023-07-12T12:04:59.887Z,97746.69
2023-07-12T12:08:07.003Z,97746.54
2023-07-12T12:11:11.679Z,97752.95
2023-07-12T12:14:24.704Z,97755.67
2023-07-12T12:17:36.917Z,97751.56
2023-07-12T12:20:51.515Z,97749.42
2023-07-12T12:23:58.608Z,97750.14
2023-07-12T12:27:11.732Z,97769.22
2023-07-12T12:30:29.805Z,97771.33
2023-07-12T12:33:31.663Z,97771.83
2023-07-12T12:36:34.013Z,97772.35
2023-07-12T12:39:36.931Z,97769.26
2023-07-12T12:43:02.072Z,97777.92
2023-07-12T12:53:29.343Z,97771.14
2023-07-12T13:05:30.692Z,97773.58
2023-07-12T13:18:12.467Z,97780.30
2023-07-12T13:21:19.860Z,97779.23
2023-07-12T13:24:21.835Z,97773.34
2023-07-12T13:27:31.098Z,97776.20
2023-07-12T13:30:38.480Z,97781.52
2023-07-12T13:33:40.403Z,97780.18
2023-07-12T13:36:45.678Z,97774.31
2023-07-12T13:39:48.060Z,97766.50
2023-07-12T13:42:57.986Z,97765.48
2023-07-12T13:46:01.582Z,97763.17
2023-07-12T13:49:03.953Z,97766.48
2023-07-12T13:52:06.249Z,97768.59
2023-07-12T13:55:13.741Z,97766.59
2023-07-12T13:58:15.562Z,97757.70
2023-07-12T14:04:23.832Z,97743.04
2023-07-12T14:10:37.021Z,97726.45
2023-07-12T14:13:38.725Z,97730.15
2023-07-12T14:16:40.519Z,97743.41
2023-07-12T14:19:44.577Z,97748.85
2023-07-12T14:22:46.402Z,97742.09
2023-07-12T14:25:48.056Z,97740.75
2023-07-12T14:28:55.458Z,97739.92
2023-07-12T14:31:58.365Z,97743.73
2023-07-12T14:35:02.070Z,97741.68
2023-07-12T14:38:10.045Z,97731.26
2023-07-12T14:41:26.360Z,97724.58
2023-07-12T14:44:27.995Z,97715.52
2023-07-12T14:47:29.613Z,97708.95
2023-07-12T14:50:31.290Z,97710.29
2023-07-12T14:53:33.013Z,97712.65
2023-07-12T14:56:34.604Z,97710.95
2023-07-12T14:59:36.515Z,97706.60
2023-07-12T15:02:39.809Z,97708.34
2023-07-12T15:05:41.551Z,97709.26
2023-07-12T15:08:45.906Z,97713.77
2023-07-12T15:12:06.874Z,97713.94
2023-07-12T15:15:13.170Z,97719.48
2023-07-12T15:18:18.325Z,97717.73
2023-07-12T15:21:30.937Z,97715.83
2023-07-12T15:24:32.624Z,97716.81
2023-07-12T15:27:37.415Z,97712.05
2023-07-12T15:30:40.433Z,97705.23
2023-07-12T15:33:42.141Z,97700.92
2023-07-12T15:36:43.811Z,97695.39
2023-07-12T15:39:45.822Z,97693.58
2023-07-12T15:42:48.727Z,97688.33
2023-07-12T15:45:50.951Z,97687.30
2023-07-12T15:48:56.992Z,97688.06
2023-07-12T15:51:58.694Z,97694.88
2023-07-12T15:55:00.634Z,97696.46
2023-07-12T15:58:02.423Z,97705.54
2023-07-12T16:01:05.429Z,97695.74
2023-07-12T16:04:07.421Z,97686.77
2023-07-12T16:07:12.803Z,97676.77
2023-07-12T16:10:15.219Z,97677.25
2023-07-12T16:13:23.476Z,97677.57
2023-07-12T16:16:28.564Z,97682.48
2023-07-12T16:19:30.464Z,97686.02
2023-07-12T16:22:32.225Z,97683.14
2023-07-12T16:25:33.837Z,97686.82
2023-07-12T16:28:36.195Z,97686.70
2023-07-12T16:31:52.326Z,97691.52
2023-07-12T16:34:54.029Z,97690.08
2023-07-12T16:37:55.796Z,97686.94
2023-07-12T16:41:05.290Z,97682.79
2023-07-12T16:44:17.188Z,97678.99
2023-07-12T16:47:18.881Z,97672.02
2023-07-12T16:50:20.553Z,97675.19
2023-07-12T16:53:42.568Z,97677.58
2023-07-12T16:56:44.194Z,97680.66
2023-07-12T16:59:51.046Z,97677.61
2023-07-12T17:02:54.063Z,97678.23
2023-07-12T17:05:57.234Z,97678.91
2023-07-12T17:08:58.858Z,97681.56
2023-07-12T17:12:00.573Z,97680.30
2023-07-12T17:15:03.447Z,97685.20
2023-07-12T17:18:05.187Z,97692.66
2023-07-12T17:21:16.542Z,97701.96
2023-07-12T17:24:18.586Z,97698.71
2023-07-12T17:27:22.588Z,97690.58
2023-07-12T17:30:24.256Z,97688.55
2023-07-12T17:33:28.501Z,97686.69
2023-07-12T17:36:30.506Z,97688.84
2023-07-12T17:39:33.101Z,97698.11
2023-07-12T17:42:35.292Z,97707.55
2023-07-12T17:45:36.932Z,97710.39
2023-07-12T17:48:40.299Z,97709.24
2023-07-12T17:51:42.169Z,97716.58
2023-07-12T17:54:44.728Z,97720.27
2023-07-12T17:57:46.429Z,97721.31
2023-07-12T18:00:53.055Z,97722.30
2023-07-12T18:03:54.819Z,97724.80
2023-07-12T18:06:57.511Z,97735.47
2023-07-12T18:09:59.864Z,97751.53
2023-07-12T18:13:01.625Z,97752.32
2023-07-12T18:16:03.473Z,97749.07
2023-07-12T18:19:05.706Z,97742.23
2023-07-12T18:22:19.932Z,97737.65
2023-07-12T18:25:23.492Z,97723.77
2023-07-12T18:28:25.363Z,97716.60
2023-07-12T18:31:30.306Z,97707.04
2023-07-12T18:34:32.146Z,97724.91
2023-07-12T18:37:34.221Z,97729.09
2023-07-12T18:40:36.782Z,97722.51
2023-07-12T18:43:39.466Z,97713.35
2023-07-12T18:46:45.066Z,97717.60
2023-07-12T18:49:52.407Z,97722.03
2023-07-12T18:52:55.503Z,97719.63
2023-07-12T18:55:57.250Z,97717.45
2023-07-12T18:59:00.225Z,97716.80
2023-07-12T19:02:02.314Z,97729.75
2023-07-12T19:05:23.124Z,97729.92
2023-07-12T19:08:24.859Z,97733.02
2023-07-12T19:11:35.162Z,97743.44
2023-07-12T19:14:37.651Z,97747.20
2023-07-12T19:17:40.509Z,97761.58
2023-07-12T19:20:42.300Z,97774.29
2023-07-12T19:23:43.989Z,97769.82
2023-07-12T19:26:45.731Z,97774.92
2023-07-12T19:29:48.567Z,97781.57
2023-07-12T19:32:50.493Z,97785.42
2023-07-12T19:35:52.194Z,97787.71
2023-07-12T19:38:55.847Z,97785.90
2023-07-12T19:41:58.490Z,97785.62
2023-07-12T19:45:00.199Z,97795.75
2023-07-12T19:48:01.960Z,97802.65
2023-07-12T19:51:14.214Z,97806.05
2023-07-12T19:54:18.229Z,97811.34
2023-07-12T19:57:20.629Z,97809.69
2023-07-12T20:00:24.933Z,97809.31
2023-07-12T20:03:26.617Z,97806.98
2023-07-12T20:06:28.900Z,97807.40
2023-07-12T20:09:30.491Z,97811.91
2023-07-12T20:12:32.230Z,97815.67
2023-07-12T20:15:33.933Z,97815.40
2023-07-12T20:18:36.709Z,97814.11
2023-07-12T20:21:39.371Z,97811.85
2023-07-12T20:24:41.142Z,97818.48
2023-07-12T20:27:42.829Z,97816.27
2023-07-12T20:30:46.086Z,97818.11
2023-07-12T20:33:47.789Z,97812.20
2023-07-12T20:36:52.779Z,97800.77
2023-07-12T20:39:54.427Z,97795.66
2023-07-12T20:42:56.119Z,97799.17
2023-07-12T20:46:00.057Z,97804.40
2023-07-12T20:49:03.586Z,97807.50
2023-07-12T20:52:08.622Z,97812.09
2023-07-12T20:55:10.267Z,97804.73
2023-07-12T20:58:11.873Z,97806.92
2023-07-12T21:01:17.114Z,97810.02
2023-07-12T21:04:18.855Z,97818.75
2023-07-12T21:07:23.536Z,97819.42
2023-07-12T21:10:25.266Z,97809.42
2023-07-12T21:13:28.003Z,97805.25
2023-07-12T21:16:30.034Z,97826.69
2023-07-12T21:19:31.777Z,97838.80
2023-07-12T21:22:33.574Z,97839.41
2023-07-12T21:25:35.291Z,97840.41
2023-07-12T21:28:37.379Z,97839.61
2023-07-12T21:31:38.975Z,97839.24
2023-07-12T21:34:40.743Z,97835.75
2023-07-12T21:37:42.403Z,97843.19
2023-07-12T21:40:44.356Z,97855.48
2023-07-12T21:43:46.190Z,97872.87
2023-07-12T21:46:47.856Z,97878.81
2023-07-12T21:49:49.734Z,97883.44
2023-07-12T21:52:51.522Z,97883.60
2023-07-12T21:55:53.186Z,97870.23
2023-07-12T21:58:57.209Z,97860.10
2023-07-12T22:01:58.940Z,97860.87
2023-07-12T22:05:01.557Z,97863.67
2023-07-12T22:08:03.417Z,97865.23
2023-07-12T22:11:09.757Z,97855.83
2023-07-12T22:14:11.550Z,97855.93
2023-07-12T22:17:14.436Z,97862.13
2023-07-12T22:20:18.736Z,97845.00
2023-07-12T22:23:20.469Z,97835.34
2023-07-12T22:26:28.835Z,97833.33
2023-07-12T22:29:30.588Z,97835.08
2023-07-12T22:32:32.254Z,97836.20
2023-07-12T22:35:34.514Z,97831.00
2023-07-12T22:38:36.947Z,97833.75
2023-07-12T22:41:38.652Z,97847.80
2023-07-12T22:44:40.621Z,97854.90
2023-07-12T22:47:43.574Z,97865.26
2023-07-12T22:50:47.332Z,97868.23
2023-07-12T22:53:50.036Z,97875.88
2023-07-12T22:56:52.120Z,97884.11
2023-07-12T22:59:53.988Z,97885.09
2023-07-12T23:02:55.743Z,97890.88
2023-07-12T23:05:58.259Z,97876.86
2023-07-12T23:08:59.927Z,97841.67
2023-07-12T23:12:07.589Z,97830.64
2023-07-12T23:15:11.637Z,97824.88
2023-07-12T23:18:13.488Z,97827.41
2023-07-12T23:21:17.056Z,97827.53
2023-07-12T23:24:19.137Z,97835.62
2023-07-12T23:27:20.792Z,97841.74
2023-07-12T23:30:24.040Z,97844.61
2023-07-12T23:33:25.728Z,97844.88
2023-07-12T23:36:28.427Z,97840.30
2023-07-12T23:39:30.528Z,97836.34
2023-07-12T23:42:32.094Z,97837.31
2023-07-12T23:45:37.232Z,97846.20
2023-07-12T23:48:38.916Z,97866.90
2023-07-12T23:51:41.261Z,97878.80
2023-07-12T23:54:44.766Z,97874.98
2023-07-12T23:57:46.722Z,97873.32
